sensor_id;sensor_type;location;lat;lon;timestamp;temperature;humidity
3134;DHT22;1577;49.912;10.924;2024-02-21T00:02:04;8.00;99.90
3134;DHT22;1577;49.912;10.924;2024-02-21T00:04:29;8.10;99.90
3134;DHT22;1577;49.912;10.924;2024-02-21T00:06:55;8.10;99.90
3134;DHT22;1577;49.912;10.924;2024-02-21T00:09:21;8.20;99.90
3134;DHT22;1577;49.912;10.924;2024-02-21T00:11:46;8.20;99.90
3134;DHT22;1577;49.912;10.924;2024-02-21T00:14:13;8.20;99.90
3134;DHT22;1577;49.912;10.924;2024-02-21T00:16:38;8.20;99.90
3134;DHT22;1577;49.912;10.924;2024-02-21T00:19:04;8.30;99.90
3134;DHT22;1577;49.912;10.924;2024-02-21T00:21:30;8.20;99.90
3134;DHT22;1577;49.912;10.924;2024-02-21T00:23:55;8.10;99.90
3134;DHT22;1577;49.912;10.924;2024-02-21T00:26:21;8.10;99.90
3134;DHT22;1577;49.912;10.924;2024-02-21T00:28:46;8.10;99.90
3134;DHT22;1577;49.912;10.924;2024-02-21T00:31:12;8.10;99.90
3134;DHT22;1577;49.912;10.924;2024-02-21T00:33:38;8.10;99.90
3134;DHT22;1577;49.912;10.924;2024-02-21T00:36:04;8.00;99.90
3134;DHT22;1577;49.912;10.924;2024-02-21T00:38:29;8.00;99.90
3134;DHT22;1577;49.912;10.924;2024-02-21T00:40:55;8.00;99.90
3134;DHT22;1577;49.912;10.924;2024-02-21T00:43:20;8.10;99.90
3134;DHT22;1577;49.912;10.924;2024-02-21T00:45:49;8.00;99.90
3134;DHT22;1577;49.912;10.924;2024-02-21T00:48:14;8.00;99.90
3134;DHT22;1577;49.912;10.924;2024-02-21T00:50:40;8.00;99.90
3134;DHT22;1577;49.912;10.924;2024-02-21T00:53:06;8.00;99.90
3134;DHT22;1577;49.912;10.924;2024-02-21T00:55:31;7.90;99.90
3134;DHT22;1577;49.912;10.924;2024-02-21T00:57:57;7.80;99.90
3134;DHT22;1577;49.912;10.924;2024-02-21T01:00:23;7.70;99.90
3134;DHT22;1577;49.912;10.924;2024-02-21T01:02:48;7.70;99.90
3134;DHT22;1577;49.912;10.924;2024-02-21T01:05:14;7.70;99.90
3134;DHT22;1577;49.912;10.924;2024-02-21T01:07:39;7.80;99.90
3134;DHT22;1577;49.912;10.924;2024-02-21T01:10:06;7.70;99.90
3134;DHT22;1577;49.912;10.924;2024-02-21T01:12:31;7.70;99.90
3134;DHT22;1577;49.912;10.924;2024-02-21T01:14:57;7.70;99.90
3134;DHT22;1577;49.912;10.924;2024-02-21T01:17:22;7.70;99.90
3134;DHT22;1577;49.912;10.924;2024-02-21T01:19:48;7.70;99.90
3134;DHT22;1577;49.912;10.924;2024-02-21T01:22:14;7.70;99.90
3134;DHT22;1577;49.912;10.924;2024-02-21T01:24:41;7.70;99.90
3134;DHT22;1577;49.912;10.924;2024-02-21T01:27:06;7.70;99.90
3134;DHT22;1577;49.912;10.924;2024-02-21T01:29:32;7.60;99.90
3134;DHT22;1577;49.912;10.924;2024-02-21T01:31:58;7.70;99.90
3134;DHT22;1577;49.912;10.924;2024-02-21T01:34:23;7.70;99.90
3134;DHT22;1577;49.912;10.924;2024-02-21T01:36:49;7.60;99.90
3134;DHT22;1577;49.912;10.924;2024-02-21T01:39:14;7.60;99.90
3134;DHT22;1577;49.912;10.924;2024-02-21T01:41:40;7.60;99.90
3134;DHT22;1577;49.912;10.924;2024-02-21T01:44:06;7.60;99.90
3134;DHT22;1577;49.912;10.924;2024-02-21T01:46:31;7.70;99.90
3134;DHT22;1577;49.912;10.924;2024-02-21T01:48:57;7.60;99.90
3134;DHT22;1577;49.912;10.924;2024-02-21T01:51:26;7.60;99.90
3134;DHT22;1577;49.912;10.924;2024-02-21T01:53:53;7.60;99.90
3134;DHT22;1577;49.912;10.924;2024-02-21T01:56:20;7.60;99.90
3134;DHT22;1577;49.912;10.924;2024-02-21T01:58:47;7.60;99.90
3134;DHT22;1577;49.912;10.924;2024-02-21T02:01:13;7.60;99.90
3134;DHT22;1577;49.912;10.924;2024-02-21T02:03:39;7.60;99.90
3134;DHT22;1577;49.912;10.924;2024-02-21T02:06:05;7.70;99.90
3134;DHT22;1577;49.912;10.924;2024-02-21T02:08:34;7.80;99.90
3134;DHT22;1577;49.912;10.924;2024-02-21T02:11:00;7.80;99.90
3134;DHT22;1577;49.912;10.924;2024-02-21T02:13:26;7.80;99.90
3134;DHT22;1577;49.912;10.924;2024-02-21T02:15:51;7.80;99.90
3134;DHT22;1577;49.912;10.924;2024-02-21T02:18:18;7.70;99.90
3134;DHT22;1577;49.912;10.924;2024-02-21T02:20:44;7.70;99.90
3134;DHT22;1577;49.912;10.924;2024-02-21T02:23:29;7.70;99.90
3134;DHT22;1577;49.912;10.924;2024-02-21T02:25:55;7.80;99.90
3134;DHT22;1577;49.912;10.924;2024-02-21T02:28:21;7.70;99.90
3134;DHT22;1577;49.912;10.924;2024-02-21T02:30:47;7.70;99.90
3134;DHT22;1577;49.912;10.924;2024-02-21T02:33:13;7.70;99.90
3134;DHT22;1577;49.912;10.924;2024-02-21T02:35:39;7.70;99.90
3134;DHT22;1577;49.912;10.924;2024-02-21T02:38:05;7.60;99.90
3134;DHT22;1577;49.912;10.924;2024-02-21T02:40:32;7.60;99.90
3134;DHT22;1577;49.912;10.924;2024-02-21T02:42:58;7.60;99.90
3134;DHT22;1577;49.912;10.924;2024-02-21T02:45:25;7.60;99.90
3134;DHT22;1577;49.912;10.924;2024-02-21T02:47:52;7.60;99.90
3134;DHT22;1577;49.912;10.924;2024-02-21T02:50:19;7.60;99.90
3134;DHT22;1577;49.912;10.924;2024-02-21T02:52:45;7.60;99.90
3134;DHT22;1577;49.912;10.924;2024-02-21T02:55:10;7.60;99.90
3134;DHT22;1577;49.912;10.924;2024-02-21T02:57:36;7.60;99.90
3134;DHT22;1577;49.912;10.924;2024-02-21T03:00:02;7.60;99.90
3134;DHT22;1577;49.912;10.924;2024-02-21T03:02:28;7.60;99.90
3134;DHT22;1577;49.912;10.924;2024-02-21T03:04:54;7.60;99.90
3134;DHT22;1577;49.912;10.924;2024-02-21T03:07:20;7.60;99.90
3134;DHT22;1577;49.912;10.924;2024-02-21T03:09:46;7.60;99.90
3134;DHT22;1577;49.912;10.924;2024-02-21T03:12:11;7.60;99.90
3134;DHT22;1577;49.912;10.924;2024-02-21T03:14:37;7.60;99.90
3134;DHT22;1577;49.912;10.924;2024-02-21T03:17:03;7.60;99.90
3134;DHT22;1577;49.912;10.924;2024-02-21T03:19:30;7.60;99.90
3134;DHT22;1577;49.912;10.924;2024-02-21T03:21:55;7.60;99.90
3134;DHT22;1577;49.912;10.924;2024-02-21T03:24:21;7.60;99.90
3134;DHT22;1577;49.912;10.924;2024-02-21T03:26:47;7.60;99.90
3134;DHT22;1577;49.912;10.924;2024-02-21T03:29:14;7.60;99.90
3134;DHT22;1577;49.912;10.924;2024-02-21T03:31:40;7.60;99.90
3134;DHT22;1577;49.912;10.924;2024-02-21T03:34:06;7.70;99.90
3134;DHT22;1577;49.912;10.924;2024-02-21T03:36:31;7.70;99.90
3134;DHT22;1577;49.912;10.924;2024-02-21T03:38:57;7.70;99.90
3134;DHT22;1577;49.912;10.924;2024-02-21T03:41:23;7.80;99.90
3134;DHT22;1577;49.912;10.924;2024-02-21T03:43:48;7.70;99.90
3134;DHT22;1577;49.912;10.924;2024-02-21T03:46:14;7.70;99.90
3134;DHT22;1577;49.912;10.924;2024-02-21T03:48:40;7.80;99.90
3134;DHT22;1577;49.912;10.924;2024-02-21T03:51:06;7.80;99.90
3134;DHT22;1577;49.912;10.924;2024-02-21T03:53:31;7.90;99.90
3134;DHT22;1577;49.912;10.924;2024-02-21T03:55:57;7.90;99.90
3134;DHT22;1577;49.912;10.924;2024-02-21T03:58:28;7.90;99.90
3134;DHT22;1577;49.912;10.924;2024-02-21T04:00:54;7.90;99.90
3134;DHT22;1577;49.912;10.924;2024-02-21T04:03:19;7.90;99.90
3134;DHT22;1577;49.912;10.924;2024-02-21T04:05:45;7.90;99.90
3134;DHT22;1577;49.912;10.924;2024-02-21T04:08:11;7.80;99.90
3134;DHT22;1577;49.912;10.924;2024-02-21T04:10:36;7.80;99.90
3134;DHT22;1577;49.912;10.924;2024-02-21T04:13:03;7.80;99.90
3134;DHT22;1577;49.912;10.924;2024-02-21T04:15:29;7.70;99.90
3134;DHT22;1577;49.912;10.924;2024-02-21T04:17:54;7.70;99.90
3134;DHT22;1577;49.912;10.924;2024-02-21T04:20:20;7.80;99.90
3134;DHT22;1577;49.912;10.924;2024-02-21T04:22:46;7.70;99.90
3134;DHT22;1577;49.912;10.924;2024-02-21T04:25:12;7.70;99.90
3134;DHT22;1577;49.912;10.924;2024-02-21T04:27:38;7.70;99.90
3134;DHT22;1577;49.912;10.924;2024-02-21T04:30:04;7.60;99.90
3134;DHT22;1577;49.912;10.924;2024-02-21T04:32:30;7.60;99.90
3134;DHT22;1577;49.912;10.924;2024-02-21T04:34:56;7.50;99.90
3134;DHT22;1577;49.912;10.924;2024-02-21T04:37:21;7.40;99.90
3134;DHT22;1577;49.912;10.924;2024-02-21T04:39:48;7.40;99.90
3134;DHT22;1577;49.912;10.924;2024-02-21T04:42:14;7.30;99.90
3134;DHT22;1577;49.912;10.924;2024-02-21T04:44:40;7.30;99.90
3134;DHT22;1577;49.912;10.924;2024-02-21T04:47:07;7.20;99.90
3134;DHT22;1577;49.912;10.924;2024-02-21T04:49:32;7.20;99.90
3134;DHT22;1577;49.912;10.924;2024-02-21T04:51:58;7.10;99.90
3134;DHT22;1577;49.912;10.924;2024-02-21T04:54:24;7.00;99.90
3134;DHT22;1577;49.912;10.924;2024-02-21T04:56:50;7.00;99.90
3134;DHT22;1577;49.912;10.924;2024-02-21T04:59:16;7.00;99.90
3134;DHT22;1577;49.912;10.924;2024-02-21T05:01:41;6.90;99.90
3134;DHT22;1577;49.912;10.924;2024-02-21T05:04:07;6.90;99.90
3134;DHT22;1577;49.912;10.924;2024-02-21T05:06:40;6.90;99.90
3134;DHT22;1577;49.912;10.924;2024-02-21T05:09:06;6.90;99.90
3134;DHT22;1577;49.912;10.924;2024-02-21T05:11:32;6.80;99.90
3134;DHT22;1577;49.912;10.924;2024-02-21T05:13:57;6.70;99.90
3134;DHT22;1577;49.912;10.924;2024-02-21T05:16:23;6.70;99.90
3134;DHT22;1577;49.912;10.924;2024-02-21T05:18:49;6.70;99.90
3134;DHT22;1577;49.912;10.924;2024-02-21T05:21:14;6.60;99.90
3134;DHT22;1577;49.912;10.924;2024-02-21T05:23:40;6.60;99.90
3134;DHT22;1577;49.912;10.924;2024-02-21T05:26:06;6.50;99.90
3134;DHT22;1577;49.912;10.924;2024-02-21T05:28:32;6.50;99.90
3134;DHT22;1577;49.912;10.924;2024-02-21T05:30:57;6.50;99.90
3134;DHT22;1577;49.912;10.924;2024-02-21T05:33:24;6.40;99.90
3134;DHT22;1577;49.912;10.924;2024-02-21T05:35:49;6.40;99.90
3134;DHT22;1577;49.912;10.924;2024-02-21T05:38:15;6.30;99.90
3134;DHT22;1577;49.912;10.924;2024-02-21T05:40:41;6.30;99.90
3134;DHT22;1577;49.912;10.924;2024-02-21T05:43:08;6.30;99.90
3134;DHT22;1577;49.912;10.924;2024-02-21T05:45:34;6.30;99.90
3134;DHT22;1577;49.912;10.924;2024-02-21T05:48:00;6.20;99.90
3134;DHT22;1577;49.912;10.924;2024-02-21T05:50:25;6.20;99.90
3134;DHT22;1577;49.912;10.924;2024-02-21T05:52:53;6.10;99.90
3134;DHT22;1577;49.912;10.924;2024-02-21T05:55:19;6.10;99.90
3134;DHT22;1577;49.912;10.924;2024-02-21T05:57:45;6.10;99.90
3134;DHT22;1577;49.912;10.924;2024-02-21T06:00:10;6.10;99.90
3134;DHT22;1577;49.912;10.924;2024-02-21T06:02:36;6.10;99.90
3134;DHT22;1577;49.912;10.924;2024-02-21T06:05:02;6.10;99.90
3134;DHT22;1577;49.912;10.924;2024-02-21T06:07:27;6.20;99.90
3134;DHT22;1577;49.912;10.924;2024-02-21T06:09:53;6.20;99.90
3134;DHT22;1577;49.912;10.924;2024-02-21T06:12:18;6.20;99.90
3134;DHT22;1577;49.912;10.924;2024-02-21T06:14:44;6.20;99.90
3134;DHT22;1577;49.912;10.924;2024-02-21T06:17:10;6.20;99.90
3134;DHT22;1577;49.912;10.924;2024-02-21T06:19:40;6.20;99.90
3134;DHT22;1577;49.912;10.924;2024-02-21T06:22:06;6.20;99.90
3134;DHT22;1577;49.912;10.924;2024-02-21T06:24:34;6.20;99.90
3134;DHT22;1577;49.912;10.924;2024-02-21T06:26:59;6.20;99.90
3134;DHT22;1577;49.912;10.924;2024-02-21T06:29:25;6.30;99.90
3134;DHT22;1577;49.912;10.924;2024-02-21T06:31:50;6.30;99.90
3134;DHT22;1577;49.912;10.924;2024-02-21T06:34:16;6.40;99.90
3134;DHT22;1577;49.912;10.924;2024-02-21T06:36:42;6.40;99.90
3134;DHT22;1577;49.912;10.924;2024-02-21T06:39:07;6.50;99.90
3134;DHT22;1577;49.912;10.924;2024-02-21T06:41:33;6.50;99.90
3134;DHT22;1577;49.912;10.924;2024-02-21T06:43:59;6.60;99.90
3134;DHT22;1577;49.912;10.924;2024-02-21T06:46:26;6.60;99.90
3134;DHT22;1577;49.912;10.924;2024-02-21T06:48:52;6.70;99.90
3134;DHT22;1577;49.912;10.924;2024-02-21T06:51:18;6.70;99.90
3134;DHT22;1577;49.912;10.924;2024-02-21T06:53:43;6.80;99.90
3134;DHT22;1577;49.912;10.924;2024-02-21T06:56:10;6.80;99.90
3134;DHT22;1577;49.912;10.924;2024-02-21T06:58:36;6.90;99.90
3134;DHT22;1577;49.912;10.924;2024-02-21T07:01:01;7.00;99.90
3134;DHT22;1577;49.912;10.924;2024-02-21T07:03:27;7.00;99.90
3134;DHT22;1577;49.912;10.924;2024-02-21T07:05:53;7.10;99.90
3134;DHT22;1577;49.912;10.924;2024-02-21T07:08:18;7.20;99.90
3134;DHT22;1577;49.912;10.924;2024-02-21T07:10:44;7.30;99.90
3134;DHT22;1577;49.912;10.924;2024-02-21T07:13:09;7.40;99.90
3134;DHT22;1577;49.912;10.924;2024-02-21T07:15:35;7.40;99.90
3134;DHT22;1577;49.912;10.924;2024-02-21T07:18:02;7.40;99.90
3134;DHT22;1577;49.912;10.924;2024-02-21T07:20:27;7.50;99.90
3134;DHT22;1577;49.912;10.924;2024-02-21T07:22:54;7.50;99.90
3134;DHT22;1577;49.912;10.924;2024-02-21T07:25:19;7.60;99.90
3134;DHT22;1577;49.912;10.924;2024-02-21T07:27:45;7.80;99.90
3134;DHT22;1577;49.912;10.924;2024-02-21T07:30:11;7.90;99.90
3134;DHT22;1577;49.912;10.924;2024-02-21T07:32:36;7.90;99.90
3134;DHT22;1577;49.912;10.924;2024-02-21T07:35:02;8.00;99.90
3134;DHT22;1577;49.912;10.924;2024-02-21T07:37:27;8.20;99.90
3134;DHT22;1577;49.912;10.924;2024-02-21T07:39:53;8.40;99.90
3134;DHT22;1577;49.912;10.924;2024-02-21T07:42:19;8.70;99.90
3134;DHT22;1577;49.912;10.924;2024-02-21T07:44:45;8.70;99.90
3134;DHT22;1577;49.912;10.924;2024-02-21T07:47:10;8.90;99.90
3134;DHT22;1577;49.912;10.924;2024-02-21T07:49:44;9.10;99.90
3134;DHT22;1577;49.912;10.924;2024-02-21T07:52:10;9.40;99.90
3134;DHT22;1577;49.912;10.924;2024-02-21T07:54:35;9.60;99.90
3134;DHT22;1577;49.912;10.924;2024-02-21T07:57:01;9.60;99.90
3134;DHT22;1577;49.912;10.924;2024-02-21T07:59:29;9.50;99.90
3134;DHT22;1577;49.912;10.924;2024-02-21T08:01:56;9.40;99.90
3134;DHT22;1577;49.912;10.924;2024-02-21T08:04:23;9.40;99.90
3134;DHT22;1577;49.912;10.924;2024-02-21T08:06:54;9.50;99.90
3134;DHT22;1577;49.912;10.924;2024-02-21T08:09:21;9.80;99.90
3134;DHT22;1577;49.912;10.924;2024-02-21T08:11:47;10.30;99.90
3134;DHT22;1577;49.912;10.924;2024-02-21T08:14:13;10.70;99.90
3134;DHT22;1577;49.912;10.924;2024-02-21T08:16:41;11.20;99.90
3134;DHT22;1577;49.912;10.924;2024-02-21T08:19:07;11.50;99.90
3134;DHT22;1577;49.912;10.924;2024-02-21T08:21:33;11.60;99.90
3134;DHT22;1577;49.912;10.924;2024-02-21T08:23:58;11.40;99.90
3134;DHT22;1577;49.912;10.924;2024-02-21T08:26:24;11.00;99.90
3134;DHT22;1577;49.912;10.924;2024-02-21T08:28:52;10.70;99.90
3134;DHT22;1577;49.912;10.924;2024-02-21T08:31:19;10.50;99.90
3134;DHT22;1577;49.912;10.924;2024-02-21T08:33:45;10.40;99.90
3134;DHT22;1577;49.912;10.924;2024-02-21T08:36:20;10.20;99.90
3134;DHT22;1577;49.912;10.924;2024-02-21T08:38:46;10.00;99.90
3134;DHT22;1577;49.912;10.924;2024-02-21T08:41:11;9.90;99.90
3134;DHT22;1577;49.912;10.924;2024-02-21T08:43:37;9.70;99.90
3134;DHT22;1577;49.912;10.924;2024-02-21T08:46:03;9.50;99.90
3134;DHT22;1577;49.912;10.924;2024-02-21T08:48:29;9.50;99.90
3134;DHT22;1577;49.912;10.924;2024-02-21T08:50:55;9.30;99.90
3134;DHT22;1577;49.912;10.924;2024-02-21T08:53:20;9.30;99.90
3134;DHT22;1577;49.912;10.924;2024-02-21T08:55:46;9.40;99.90
3134;DHT22;1577;49.912;10.924;2024-02-21T08:58:12;9.40;99.90
3134;DHT22;1577;49.912;10.924;2024-02-21T09:00:37;9.30;99.90
3134;DHT22;1577;49.912;10.924;2024-02-21T09:03:03;9.20;99.90
3134;DHT22;1577;49.912;10.924;2024-02-21T09:05:29;9.30;99.90
3134;DHT22;1577;49.912;10.924;2024-02-21T09:07:54;9.30;99.90
3134;DHT22;1577;49.912;10.924;2024-02-21T09:10:21;9.50;99.90
3134;DHT22;1577;49.912;10.924;2024-02-21T09:12:46;9.50;99.90
3134;DHT22;1577;49.912;10.924;2024-02-21T09:15:13;9.50;99.90
3134;DHT22;1577;49.912;10.924;2024-02-21T09:17:38;9.50;99.90
3134;DHT22;1577;49.912;10.924;2024-02-21T09:20:05;9.60;99.90
3134;DHT22;1577;49.912;10.924;2024-02-21T09:22:32;9.60;99.90
3134;DHT22;1577;49.912;10.924;2024-02-21T09:25:00;9.70;99.90
3134;DHT22;1577;49.912;10.924;2024-02-21T09:27:26;9.70;99.90
3134;DHT22;1577;49.912;10.924;2024-02-21T09:29:52;9.80;99.90
3134;DHT22;1577;49.912;10.924;2024-02-21T09:32:20;9.90;99.90
3134;DHT22;1577;49.912;10.924;2024-02-21T09:34:46;9.90;99.90
3134;DHT22;1577;49.912;10.924;2024-02-21T09:37:11;10.10;99.90
3134;DHT22;1577;49.912;10.924;2024-02-21T09:39:37;10.30;99.90
3134;DHT22;1577;49.912;10.924;2024-02-21T09:42:06;10.20;99.90
3134;DHT22;1577;49.912;10.924;2024-02-21T09:44:38;10.40;99.90
3134;DHT22;1577;49.912;10.924;2024-02-21T09:47:07;10.40;99.90
3134;DHT22;1577;49.912;10.924;2024-02-21T09:49:35;10.20;99.90
3134;DHT22;1577;49.912;10.924;2024-02-21T09:52:05;10.20;99.90
3134;DHT22;1577;49.912;10.924;2024-02-21T09:54:35;10.30;99.90
3134;DHT22;1577;49.912;10.924;2024-02-21T09:57:02;10.40;99.90
3134;DHT22;1577;49.912;10.924;2024-02-21T09:59:30;10.60;99.90
3134;DHT22;1577;49.912;10.924;2024-02-21T10:01:56;10.80;99.90
3134;DHT22;1577;49.912;10.924;2024-02-21T10:04:21;11.00;99.90
3134;DHT22;1577;49.912;10.924;2024-02-21T10:06:47;11.00;99.90
3134;DHT22;1577;49.912;10.924;2024-02-21T10:09:27;11.10;99.90
3134;DHT22;1577;49.912;10.924;2024-02-21T10:11:53;11.20;99.90
3134;DHT22;1577;49.912;10.924;2024-02-21T10:14:19;11.30;99.90
3134;DHT22;1577;49.912;10.924;2024-02-21T10:16:56;11.30;99.90
3134;DHT22;1577;49.912;10.924;2024-02-21T10:19:23;11.40;99.90
3134;DHT22;1577;49.912;10.924;2024-02-21T10:22:18;11.50;99.90
3134;DHT22;1577;49.912;10.924;2024-02-21T10:24:46;11.50;99.90
3134;DHT22;1577;49.912;10.924;2024-02-21T10:27:11;11.60;99.90
3134;DHT22;1577;49.912;10.924;2024-02-21T10:29:38;11.60;99.90
3134;DHT22;1577;49.912;10.924;2024-02-21T10:32:08;11.50;99.90
3134;DHT22;1577;49.912;10.924;2024-02-21T10:34:35;11.60;99.90
3134;DHT22;1577;49.912;10.924;2024-02-21T10:37:06;11.50;99.90
3134;DHT22;1577;49.912;10.924;2024-02-21T10:39:32;11.60;99.90
3134;DHT22;1577;49.912;10.924;2024-02-21T10:42:01;11.60;99.90
3134;DHT22;1577;49.912;10.924;2024-02-21T10:44:30;11.50;99.90
3134;DHT22;1577;49.912;10.924;2024-02-21T10:46:56;11.60;99.90
3134;DHT22;1577;49.912;10.924;2024-02-21T10:49:26;11.80;99.90
3134;DHT22;1577;49.912;10.924;2024-02-21T10:52:13;11.90;99.90
3134;DHT22;1577;49.912;10.924;2024-02-21T10:54:56;12.00;99.90
3134;DHT22;1577;49.912;10.924;2024-02-21T10:57:22;12.20;99.90
3134;DHT22;1577;49.912;10.924;2024-02-21T10:59:49;12.20;99.90
3134;DHT22;1577;49.912;10.924;2024-02-21T11:02:15;12.30;99.90
3134;DHT22;1577;49.912;10.924;2024-02-21T11:04:41;12.30;99.90
3134;DHT22;1577;49.912;10.924;2024-02-21T11:07:08;12.30;99.90
3134;DHT22;1577;49.912;10.924;2024-02-21T11:09:34;12.10;99.90
3134;DHT22;1577;49.912;10.924;2024-02-21T11:12:04;12.30;99.90
3134;DHT22;1577;49.912;10.924;2024-02-21T11:14:31;12.20;99.90
3134;DHT22;1577;49.912;10.924;2024-02-21T11:16:58;12.10;99.90
3134;DHT22;1577;49.912;10.924;2024-02-21T11:19:28;12.20;99.90
3134;DHT22;1577;49.912;10.924;2024-02-21T11:21:55;12.20;99.90
3134;DHT22;1577;49.912;10.924;2024-02-21T11:24:30;12.20;99.90
3134;DHT22;1577;49.912;10.924;2024-02-21T11:27:08;12.30;99.90
3134;DHT22;1577;49.912;10.924;2024-02-21T11:29:40;12.20;99.90
3134;DHT22;1577;49.912;10.924;2024-02-21T11:32:09;12.30;99.90
3134;DHT22;1577;49.912;10.924;2024-02-21T11:34:35;12.30;99.90
3134;DHT22;1577;49.912;10.924;2024-02-21T11:37:01;12.20;99.90
3134;DHT22;1577;49.912;10.924;2024-02-21T11:39:26;12.20;99.90
3134;DHT22;1577;49.912;10.924;2024-02-21T11:42:04;12.10;99.90
3134;DHT22;1577;49.912;10.924;2024-02-21T11:44:31;12.10;99.90
3134;DHT22;1577;49.912;10.924;2024-02-21T11:46:57;12.20;99.90
3134;DHT22;1577;49.912;10.924;2024-02-21T11:49:28;12.20;99.90
3134;DHT22;1577;49.912;10.924;2024-02-21T11:52:01;12.20;99.90
3134;DHT22;1577;49.912;10.924;2024-02-21T11:54:29;12.20;99.90
3134;DHT22;1577;49.912;10.924;2024-02-21T11:56:55;12.20;99.90
3134;DHT22;1577;49.912;10.924;2024-02-21T11:59:21;12.10;99.90
3134;DHT22;1577;49.912;10.924;2024-02-21T12:01:47;12.10;99.90
3134;DHT22;1577;49.912;10.924;2024-02-21T12:04:13;12.20;99.90
3134;DHT22;1577;49.912;10.924;2024-02-21T12:06:39;12.20;99.90
3134;DHT22;1577;49.912;10.924;2024-02-21T12:09:08;12.30;99.90
3134;DHT22;1577;49.912;10.924;2024-02-21T12:11:36;12.40;99.90
3134;DHT22;1577;49.912;10.924;2024-02-21T12:14:02;12.50;99.90
3134;DHT22;1577;49.912;10.924;2024-02-21T12:16:36;12.60;99.90
3134;DHT22;1577;49.912;10.924;2024-02-21T12:19:02;12.60;99.90
3134;DHT22;1577;49.912;10.924;2024-02-21T12:21:32;12.80;99.90
3134;DHT22;1577;49.912;10.924;2024-02-21T12:24:00;12.80;99.90
3134;DHT22;1577;49.912;10.924;2024-02-21T12:26:26;12.90;99.90
3134;DHT22;1577;49.912;10.924;2024-02-21T12:28:53;12.90;99.90
3134;DHT22;1577;49.912;10.924;2024-02-21T12:31:20;13.00;99.90
3134;DHT22;1577;49.912;10.924;2024-02-21T12:33:47;13.10;99.90
3134;DHT22;1577;49.912;10.924;2024-02-21T12:36:12;13.20;99.90
3134;DHT22;1577;49.912;10.924;2024-02-21T12:38:38;13.10;99.90
3134;DHT22;1577;49.912;10.924;2024-02-21T12:41:03;13.10;99.90
3134;DHT22;1577;49.912;10.924;2024-02-21T12:43:29;13.00;99.90
3134;DHT22;1577;49.912;10.924;2024-02-21T12:45:55;12.90;99.90
3134;DHT22;1577;49.912;10.924;2024-02-21T12:48:20;13.00;99.90
3134;DHT22;1577;49.912;10.924;2024-02-21T12:50:49;12.90;99.90
3134;DHT22;1577;49.912;10.924;2024-02-21T12:53:17;12.80;99.90
3134;DHT22;1577;49.912;10.924;2024-02-21T12:55:44;12.80;99.90
3134;DHT22;1577;49.912;10.924;2024-02-21T12:58:10;12.70;99.90
3134;DHT22;1577;49.912;10.924;2024-02-21T13:00:36;12.70;99.90
3134;DHT22;1577;49.912;10.924;2024-02-21T13:03:03;12.70;99.90
3134;DHT22;1577;49.912;10.924;2024-02-21T13:05:29;12.70;99.90
3134;DHT22;1577;49.912;10.924;2024-02-21T13:07:54;12.80;99.90
3134;DHT22;1577;49.912;10.924;2024-02-21T13:10:20;12.80;99.90
3134;DHT22;1577;49.912;10.924;2024-02-21T13:12:47;12.90;99.90
3134;DHT22;1577;49.912;10.924;2024-02-21T13:15:12;12.90;99.90
3134;DHT22;1577;49.912;10.924;2024-02-21T13:17:38;13.00;99.90
3134;DHT22;1577;49.912;10.924;2024-02-21T13:20:05;13.10;99.90
3134;DHT22;1577;49.912;10.924;2024-02-21T13:22:31;13.10;99.90
3134;DHT22;1577;49.912;10.924;2024-02-21T13:24:57;13.20;99.90
3134;DHT22;1577;49.912;10.924;2024-02-21T13:27:22;13.20;99.90
3134;DHT22;1577;49.912;10.924;2024-02-21T13:29:48;13.30;99.90
3134;DHT22;1577;49.912;10.924;2024-02-21T13:32:13;13.40;99.90
3134;DHT22;1577;49.912;10.924;2024-02-21T13:34:41;13.40;99.90
3134;DHT22;1577;49.912;10.924;2024-02-21T13:37:07;13.40;99.90
3134;DHT22;1577;49.912;10.924;2024-02-21T13:39:35;13.30;99.90
3134;DHT22;1577;49.912;10.924;2024-02-21T13:42:01;13.30;99.90
3134;DHT22;1577;49.912;10.924;2024-02-21T13:44:27;13.30;99.90
3134;DHT22;1577;49.912;10.924;2024-02-21T13:46:52;13.30;99.90
3134;DHT22;1577;49.912;10.924;2024-02-21T13:49:18;13.20;99.90
3134;DHT22;1577;49.912;10.924;2024-02-21T13:51:43;13.30;99.90
3134;DHT22;1577;49.912;10.924;2024-02-21T13:54:10;13.30;99.90
3134;DHT22;1577;49.912;10.924;2024-02-21T13:56:37;13.30;99.90
3134;DHT22;1577;49.912;10.924;2024-02-21T13:59:02;13.20;99.90
3134;DHT22;1577;49.912;10.924;2024-02-21T14:01:28;13.00;99.90
3134;DHT22;1577;49.912;10.924;2024-02-21T14:03:54;12.90;99.90
3134;DHT22;1577;49.912;10.924;2024-02-21T14:06:19;12.90;99.90
3134;DHT22;1577;49.912;10.924;2024-02-21T14:08:45;12.90;99.90
3134;DHT22;1577;49.912;10.924;2024-02-21T14:11:11;12.90;99.90
3134;DHT22;1577;49.912;10.924;2024-02-21T14:13:40;12.80;99.90
3134;DHT22;1577;49.912;10.924;2024-02-21T14:16:09;12.70;99.90
3134;DHT22;1577;49.912;10.924;2024-02-21T14:18:37;12.70;99.90
3134;DHT22;1577;49.912;10.924;2024-02-21T14:21:03;12.80;99.90
3134;DHT22;1577;49.912;10.924;2024-02-21T14:23:29;12.80;99.90
3134;DHT22;1577;49.912;10.924;2024-02-21T14:25:55;12.80;99.90
3134;DHT22;1577;49.912;10.924;2024-02-21T14:28:20;12.80;99.90
3134;DHT22;1577;49.912;10.924;2024-02-21T14:30:46;12.70;99.90
3134;DHT22;1577;49.912;10.924;2024-02-21T14:33:13;12.70;99.90
3134;DHT22;1577;49.912;10.924;2024-02-21T14:35:38;12.60;99.90
3134;DHT22;1577;49.912;10.924;2024-02-21T14:38:04;12.60;99.90
3134;DHT22;1577;49.912;10.924;2024-02-21T14:40:29;12.60;99.90
3134;DHT22;1577;49.912;10.924;2024-02-21T14:42:56;12.50;99.90
3134;DHT22;1577;49.912;10.924;2024-02-21T14:45:21;12.50;99.90
3134;DHT22;1577;49.912;10.924;2024-02-21T14:47:48;12.50;99.90
3134;DHT22;1577;49.912;10.924;2024-02-21T14:50:14;12.50;99.90
3134;DHT22;1577;49.912;10.924;2024-02-21T14:52:39;12.40;99.90
3134;DHT22;1577;49.912;10.924;2024-02-21T14:55:05;12.40;99.90
3134;DHT22;1577;49.912;10.924;2024-02-21T14:57:31;12.40;99.90
3134;DHT22;1577;49.912;10.924;2024-02-21T14:59:57;12.50;99.90
3134;DHT22;1577;49.912;10.924;2024-02-21T15:02:24;12.40;99.90
3134;DHT22;1577;49.912;10.924;2024-02-21T15:04:50;12.40;99.90
3134;DHT22;1577;49.912;10.924;2024-02-21T15:07:19;12.40;99.90
3134;DHT22;1577;49.912;10.924;2024-02-21T15:09:45;12.40;99.90
3134;DHT22;1577;49.912;10.924;2024-02-21T15:12:11;12.40;99.90
3134;DHT22;1577;49.912;10.924;2024-02-21T15:14:36;12.30;99.90
3134;DHT22;1577;49.912;10.924;2024-02-21T15:17:02;12.40;99.90
3134;DHT22;1577;49.912;10.924;2024-02-21T15:19:28;12.40;99.90
3134;DHT22;1577;49.912;10.924;2024-02-21T15:21:53;12.30;99.90
3134;DHT22;1577;49.912;10.924;2024-02-21T15:24:19;12.20;99.90
3134;DHT22;1577;49.912;10.924;2024-02-21T15:26:45;12.20;99.90
3134;DHT22;1577;49.912;10.924;2024-02-21T15:29:10;12.20;99.90
3134;DHT22;1577;49.912;10.924;2024-02-21T15:31:36;12.10;99.90
3134;DHT22;1577;49.912;10.924;2024-02-21T15:34:03;12.00;99.90
3134;DHT22;1577;49.912;10.924;2024-02-21T15:36:28;12.00;99.90
3134;DHT22;1577;49.912;10.924;2024-02-21T15:38:54;12.00;99.90
3134;DHT22;1577;49.912;10.924;2024-02-21T15:41:20;11.90;99.90
3134;DHT22;1577;49.912;10.924;2024-02-21T15:43:46;11.90;99.90
3134;DHT22;1577;49.912;10.924;2024-02-21T15:46:12;12.00;99.90
3134;DHT22;1577;49.912;10.924;2024-02-21T15:48:38;11.90;99.90
3134;DHT22;1577;49.912;10.924;2024-02-21T15:51:05;11.90;99.90